Time;durP1;ratioP1;P1;durP2;ratioP2;P2;SDS_P1;SDS_P2;PMS_P1;PMS_P2;Temp;Humidity;BMP_temperature;BMP_pressure;BME280_temperature;BME280_humidity;BME280_pressure;Samples;Min_cycle;Max_cycle;Signal;HPM_P1;HPM_P2
2023/12/07 00:01:10;;;;;;;4.10;3.70;;;;;;;2.84;100.00;98407.97;5114093;28;20203;-76
2023/12/07 00:03:36;;;;;;;3.90;3.17;;;;;;;2.83;100.00;98398.44;5113652;28;20205;-76
2023/12/07 00:06:03;;;;;;;4.33;3.93;;;;;;;2.82;100.00;98394.16;5113645;28;20217;-76
2023/12/07 00:08:29;;;;;;;5.80;3.77;;;;;;;2.80;100.00;98402.19;5113910;28;20203;-76
2023/12/07 00:10:56;;;;;;;3.97;3.50;;;;;;;2.75;100.00;98399.25;5113767;28;20227;-76
2023/12/07 00:13:22;;;;;;;4.20;3.77;;;;;;;2.81;100.00;98403.03;5113949;28;20215;-76
2023/12/07 00:15:48;;;;;;;4.63;4.00;;;;;;;2.76;100.00;98407.94;5116906;28;20682;-76
2023/12/07 00:18:15;;;;;;;4.30;3.47;;;;;;;2.76;100.00;98418.44;5117882;28;20207;-76
2023/12/07 00:20:41;;;;;;;5.03;3.93;;;;;;;2.76;100.00;98415.81;5117330;28;20227;-76
2023/12/07 00:23:08;;;;;;;5.03;3.70;;;;;;;2.76;100.00;98413.19;5117701;28;20206;-76
2023/12/07 00:25:35;;;;;;;3.97;3.40;;;;;;;2.74;100.00;98412.53;5117457;28;20207;-76
2023/12/07 00:28:05;;;;;;;4.43;4.00;;;;;;;2.77;100.00;98418.28;5117741;28;20207;-76
2023/12/07 00:30:33;;;;;;;6.20;4.10;;;;;;;2.80;100.00;98425.81;5117423;28;20250;-76
2023/12/07 00:33:00;;;;;;;4.23;3.83;;;;;;;2.79;100.00;98425.97;5117412;28;20578;-76
2023/12/07 00:35:28;;;;;;;5.03;3.67;;;;;;;2.83;100.00;98424.69;5117205;28;20298;-76
2023/12/07 00:37:57;;;;;;;4.17;3.40;;;;;;;2.86;100.00;98427.84;5118561;28;20211;-76
2023/12/07 00:40:25;;;;;;;4.43;3.73;;;;;;;2.90;100.00;98430.94;5117314;28;20276;-76
2023/12/07 00:42:51;;;;;;;4.17;3.40;;;;;;;3.02;100.00;98421.78;5117380;28;20203;-76
2023/12/07 00:45:18;;;;;;;3.63;3.30;;;;;;;3.05;100.00;98434.56;5117297;28;20224;-76
2023/12/07 00:47:45;;;;;;;4.73;3.80;;;;;;;3.03;100.00;98424.22;5116797;28;20252;-76
2023/12/07 00:50:15;;;;;;;3.87;3.07;;;;;;;3.09;100.00;98428.00;5117105;28;20223;-76
2023/12/07 00:52:42;;;;;;;3.80;3.50;;;;;;;3.04;100.00;98430.31;5117102;28;20250;-76
2023/12/07 00:55:08;;;;;;;4.87;3.70;;;;;;;3.13;100.00;98427.53;5117245;28;20264;-76
2023/12/07 00:57:35;;;;;;;4.10;3.37;;;;;;;3.12;100.00;98430.31;5117085;28;20203;-76
2023/12/07 01:00:01;;;;;;;3.60;3.20;;;;;;;3.14;100.00;98423.91;5116906;28;20227;-76
2023/12/07 01:02:27;;;;;;;3.97;3.40;;;;;;;3.16;100.00;98421.94;5116962;28;20203;-76
2023/12/07 01:04:54;;;;;;;5.57;3.40;;;;;;;3.18;100.00;98432.28;5116916;28;20205;-76
2023/12/07 01:07:21;;;;;;;4.10;3.47;;;;;;;3.24;100.00;98431.63;5116867;28;20274;-76
2023/12/07 01:09:47;;;;;;;3.53;3.23;;;;;;;3.25;100.00;98433.28;5116834;28;20267;-76
2023/12/07 01:12:13;;;;;;;5.87;4.00;;;;;;;3.32;100.00;98442.97;5117145;28;20213;-76
2023/12/07 01:14:41;;;;;;;6.10;3.70;;;;;;;3.28;100.00;98443.44;5116727;28;20580;-76
2023/12/07 01:17:07;;;;;;;4.93;3.77;;;;;;;3.28;100.00;98438.19;5116318;28;20666;-76
2023/12/07 01:19:34;;;;;;;5.50;3.87;;;;;;;3.30;100.00;98442.28;5116550;28;20243;-76
2023/12/07 01:22:00;;;;;;;6.10;3.83;;;;;;;3.37;100.00;98442.47;5116251;28;20203;-76
2023/12/07 01:24:26;;;;;;;6.20;4.13;;;;;;;3.42;100.00;98450.66;5116559;28;20202;-76
2023/12/07 01:26:53;;;;;;;4.30;3.90;;;;;;;3.46;100.00;98455.44;5115970;28;20567;-76
2023/12/07 01:29:19;;;;;;;4.03;3.53;;;;;;;3.48;100.00;98457.91;5116418;28;20229;-76
2023/12/07 01:31:46;;;;;;;6.43;4.13;;;;;;;3.49;100.00;98459.56;5116349;28;20210;-76
2023/12/07 01:34:12;;;;;;;4.27;3.80;;;;;;;3.43;100.00;98447.88;5116833;28;20598;-76
2023/12/07 01:36:39;;;;;;;5.13;3.77;;;;;;;3.39;100.00;98445.78;5116349;28;20207;-76
2023/12/07 01:39:06;;;;;;;5.70;3.87;;;;;;;3.34;100.00;98451.50;5116214;28;20740;-76
2023/12/07 01:41:33;;;;;;;4.10;3.50;;;;;;;3.28;100.00;98446.06;5116294;28;20569;-76
2023/12/07 01:43:59;;;;;;;6.13;4.10;;;;;;;3.28;100.00;98453.97;5116447;28;20558;-76
2023/12/07 01:46:26;;;;;;;5.40;3.70;;;;;;;3.18;100.00;98464.63;5116219;28;20566;-76
2023/12/07 01:48:53;;;;;;;5.37;4.37;;;;;;;3.19;100.00;98457.56;5115720;28;20227;-76
2023/12/07 01:51:21;;;;;;;5.27;4.40;;;;;;;3.09;100.00;98470.88;5116141;28;20210;-76
2023/12/07 01:53:48;;;;;;;4.50;3.90;;;;;;;2.96;100.00;98469.69;5115872;28;20219;-76
2023/12/07 01:56:15;;;;;;;6.93;4.87;;;;;;;2.89;100.00;98464.25;5115941;28;20613;-76
2023/12/07 01:58:42;;;;;;;5.40;4.00;;;;;;;2.95;100.00;98468.03;5115935;28;20289;-76
2023/12/07 02:01:11;;;;;;;4.93;4.30;;;;;;;2.93;100.00;98464.78;5115888;28;20199;-76
2023/12/07 02:03:40;;;;;;;5.30;3.97;;;;;;;2.84;100.00;98470.97;5115799;28;20210;-76
2023/12/07 02:06:08;;;;;;;5.27;4.50;;;;;;;2.81;100.00;98471.28;5114598;28;20207;-76
2023/12/07 02:08:35;;;;;;;4.97;4.20;;;;;;;2.74;100.00;98472.91;5115278;28;20726;-76
2023/12/07 02:11:02;;;;;;;7.10;4.17;;;;;;;2.73;100.00;98472.09;5115600;28;20298;-76
2023/12/07 02:13:29;;;;;;;7.37;4.63;;;;;;;2.79;100.00;98468.00;5115495;28;20219;-76
2023/12/07 02:15:58;;;;;;;5.83;4.43;;;;;;;2.76;100.00;98466.50;5115642;28;20207;-76
2023/12/07 02:18:36;;;;;;;5.10;4.60;;;;;;;2.71;100.00;98460.91;5115491;28;20203;-76
2023/12/07 02:21:09;;;;;;;6.23;5.33;;;;;;;2.78;100.00;98467.19;5097674;28;20214;-76
2023/12/07 02:23:38;;;;;;;5.63;4.97;;;;;;;2.72;100.00;98467.00;5115398;28;20187;-76
2023/12/07 02:26:07;;;;;;;6.20;4.90;;;;;;;2.67;100.00;98458.78;5115461;28;20225;-76
2023/12/07 02:28:33;;;;;;;5.87;5.03;;;;;;;2.59;100.00;98459.59;5115206;27;20209;-76
2023/12/07 02:31:00;;;;;;;6.27;4.67;;;;;;;2.58;100.00;98465.00;5114927;28;20207;-76
2023/12/07 02:33:27;;;;;;;5.97;4.60;;;;;;;2.49;100.00;98465.94;5114799;28;20223;-76
2023/12/07 02:35:53;;;;;;;5.63;5.00;;;;;;;2.39;100.00;98466.06;5115048;28;20209;-76
2023/12/07 02:38:23;;;;;;;6.63;5.27;;;;;;;2.38;100.00;98469.66;5114248;28;20205;-76
2023/12/07 02:40:50;;;;;;;9.23;5.53;;;;;;;2.29;100.00;98470.59;5115265;28;20245;-76
2023/12/07 02:43:17;;;;;;;6.57;5.80;;;;;;;2.21;100.00;98477.63;5115020;28;20199;-76
2023/12/07 02:45:44;;;;;;;8.33;5.70;;;;;;;2.23;100.00;98480.91;5114613;28;20666;-76
2023/12/07 02:48:10;;;;;;;8.30;5.87;;;;;;;2.13;100.00;98473.16;5114809;28;20211;-76
2023/12/07 02:50:36;;;;;;;6.13;5.53;;;;;;;2.07;100.00;98468.53;5114584;28;20225;-76
2023/12/07 02:53:03;;;;;;;6.63;5.47;;;;;;;2.03;100.00;98469.81;5114393;28;20215;-76
2023/12/07 02:55:29;;;;;;;8.47;6.87;;;;;;;2.02;100.00;98462.09;5114441;28;20570;-76
2023/12/07 02:57:55;;;;;;;8.13;6.53;;;;;;;1.91;100.00;98462.38;5114131;28;20675;-76
2023/12/07 03:00:22;;;;;;;8.47;7.23;;;;;;;2.06;100.00;98466.06;5114379;28;20718;-76
2023/12/07 03:02:50;;;;;;;8.13;6.67;;;;;;;2.08;100.00;98464.91;5114606;28;20203;-76
2023/12/07 03:05:16;;;;;;;9.03;6.67;;;;;;;2.08;100.00;98466.75;5114581;28;20208;-76
2023/12/07 03:07:43;;;;;;;7.73;6.57;;;;;;;2.08;100.00;98471.97;5114237;28;20207;-76
2023/12/07 03:10:09;;;;;;;7.57;6.60;;;;;;;2.16;100.00;98469.41;5114187;28;20567;-76
2023/12/07 03:12:35;;;;;;;7.20;6.50;;;;;;;2.19;100.00;98469.91;5114442;28;20203;-76
2023/12/07 03:15:02;;;;;;;8.97;6.83;;;;;;;2.17;100.00;98473.66;5114412;28;20213;-76
2023/12/07 03:17:29;;;;;;;8.17;6.43;;;;;;;2.22;100.00;98476.66;5114485;28;20206;-76
2023/12/07 03:19:55;;;;;;;9.37;7.00;;;;;;;2.22;100.00;98474.81;5113968;28;20606;-76
2023/12/07 03:22:22;;;;;;;8.83;6.80;;;;;;;2.24;100.00;98475.50;5114211;28;20218;-76
2023/12/07 03:24:53;;;;;;;8.93;6.83;;;;;;;2.17;100.00;98474.47;5114309;28;20206;-76
2023/12/07 03:27:19;;;;;;;8.60;6.67;;;;;;;2.19;100.00;98474.31;5114448;28;20196;-76
2023/12/07 03:29:46;;;;;;;8.43;7.47;;;;;;;2.09;100.00;98468.38;5114166;28;20219;-76
2023/12/07 03:32:12;;;;;;;9.93;7.47;;;;;;;2.09;100.00;98478.88;5114546;28;20213;-76
2023/12/07 03:34:38;;;;;;;8.90;7.57;;;;;;;2.02;100.00;98475.22;5114126;28;20231;-76
2023/12/07 03:37:05;;;;;;;8.87;7.23;;;;;;;2.01;100.00;98476.19;5114208;28;20203;-76
2023/12/07 03:39:32;;;;;;;9.73;7.07;;;;;;;1.94;100.00;98475.19;5114152;28;20223;-76
2023/12/07 03:41:58;;;;;;;9.90;7.97;;;;;;;1.84;100.00;98472.66;5114259;28;20229;-76
2023/12/07 03:44:26;;;;;;;8.53;7.63;;;;;;;1.83;100.00;98467.56;5114239;28;20199;-76
2023/12/07 03:46:52;;;;;;;9.77;7.80;;;;;;;1.76;100.00;98471.78;5113956;28;20203;-76
2023/12/07 03:49:19;;;;;;;9.60;8.07;;;;;;;1.76;100.00;98482.28;5115067;28;20229;-76
2023/12/07 03:51:45;;;;;;;10.40;7.80;;;;;;;1.78;100.00;98482.94;5118234;28;20207;-76
2023/12/07 03:54:12;;;;;;;9.07;7.97;;;;;;;1.76;100.00;98479.66;5118211;28;20227;-76
2023/12/07 03:56:40;;;;;;;10.17;7.70;;;;;;;1.70;100.00;98478.47;5118326;28;20210;-76
2023/12/07 03:59:07;;;;;;;8.30;7.50;;;;;;;1.63;100.00;98484.47;5118170;28;20223;-76
2023/12/07 04:01:33;;;;;;;9.67;7.30;;;;;;;1.58;100.00;98484.91;5118107;28;20203;-76
2023/12/07 04:04:00;;;;;;;8.47;7.47;;;;;;;1.53;100.00;98481.94;5117986;28;20199;-76
2023/12/07 04:06:27;;;;;;;8.43;7.47;;;;;;;1.45;100.00;98489.75;5117745;28;20570;-76
2023/12/07 04:08:53;;;;;;;9.07;7.80;;;;;;;1.44;100.00;98488.06;5117488;28;20230;-76
2023/12/07 04:11:20;;;;;;;9.47;8.37;;;;;;;1.41;100.00;98492.81;5117799;28;20203;-76
2023/12/07 04:13:47;;;;;;;10.30;8.10;;;;;;;1.34;100.00;98499.59;5117955;28;20219;-76
2023/12/07 04:16:13;;;;;;;10.93;8.07;;;;;;;1.33;100.00;98492.72;5117488;28;20207;-76
2023/12/07 04:18:39;;;;;;;11.07;8.47;;;;;;;1.23;100.00;98486.75;5117619;28;20203;-76
2023/12/07 04:21:06;;;;;;;9.70;8.00;;;;;;;1.20;100.00;98500.13;5117316;28;20222;-76
2023/12/07 04:23:33;;;;;;;10.07;8.10;;;;;;;1.19;100.00;98495.88;5117343;28;20658;-76
2023/12/07 04:25:59;;;;;;;9.90;8.03;;;;;;;1.13;100.00;98501.72;5117464;28;20210;-76
2023/12/07 04:28:25;;;;;;;8.10;7.30;;;;;;;1.12;100.00;98507.94;5117345;28;20199;-76
2023/12/07 04:30:52;;;;;;;8.63;7.60;;;;;;;1.14;100.00;98501.56;5117460;28;20231;-76
2023/12/07 04:33:19;;;;;;;9.83;7.93;;;;;;;1.13;100.00;98504.34;5117108;28;20562;-76
2023/12/07 04:35:45;;;;;;;9.43;7.50;;;;;;;1.09;100.00;98503.81;5118040;28;20235;-76
2023/12/07 04:38:11;;;;;;;10.33;7.63;;;;;;;1.15;100.00;98507.63;5117097;28;20203;-76
2023/12/07 04:40:38;;;;;;;9.33;7.30;;;;;;;1.08;100.00;98502.16;5117016;28;20219;-76
2023/12/07 04:43:04;;;;;;;10.47;7.40;;;;;;;1.03;100.00;98508.81;5117380;28;20272;-76
2023/12/07 04:45:31;;;;;;;9.63;7.07;;;;;;;1.02;100.00;98505.38;5117109;28;20570;-76
2023/12/07 04:47:58;;;;;;;9.53;7.23;;;;;;;0.97;100.00;98496.31;5116904;28;20682;-76
2023/12/07 04:50:24;;;;;;;10.20;7.33;;;;;;;0.95;100.00;98508.75;5117217;28;20227;-76
2023/12/07 04:52:50;;;;;;;9.63;7.70;;;;;;;0.92;100.00;98504.63;5116578;28;20203;-76
2023/12/07 04:55:17;;;;;;;9.47;7.37;;;;;;;0.91;100.00;98510.84;5116710;28;20219;-76
2023/12/07 04:57:43;;;;;;;10.10;7.73;;;;;;;0.88;100.00;98511.13;5116569;28;20209;-76
2023/12/07 05:00:11;;;;;;;11.20;7.43;;;;;;;0.83;100.00;98502.06;5116110;28;20234;-76
2023/12/07 05:02:37;;;;;;;8.13;6.80;;;;;;;0.80;100.00;98505.78;5115813;28;20616;-76
2023/12/07 05:05:05;;;;;;;7.20;6.50;;;;;;;0.78;100.00;98501.69;5116681;28;20596;-76
2023/12/07 05:07:31;;;;;;;8.73;6.97;;;;;;;0.68;100.00;98506.16;5116623;28;20286;-76
2023/12/07 05:09:57;;;;;;;7.27;6.53;;;;;;;0.75;100.00;98499.34;5116301;28;20267;-76
2023/12/07 05:12:24;;;;;;;10.43;7.40;;;;;;;0.76;100.00;98503.63;5116466;28;20209;-76
2023/12/07 05:14:51;;;;;;;8.40;6.97;;;;;;;0.83;100.00;98502.06;5116455;28;20230;-76
2023/12/07 05:17:17;;;;;;;8.77;6.90;;;;;;;0.76;100.00;98501.00;5115928;28;20670;-76
2023/12/07 05:19:45;;;;;;;6.83;6.13;;;;;;;0.73;100.00;98506.53;5115950;28;20318;-76
2023/12/07 05:22:11;;;;;;;9.43;6.80;;;;;;;0.65;100.00;98507.25;5116151;28;20199;-76
2023/12/07 05:24:37;;;;;;;9.83;7.00;;;;;;;0.63;100.00;98509.19;5116024;28;20199;-76
2023/12/07 05:27:04;;;;;;;7.80;6.80;;;;;;;0.52;100.00;98508.56;5115873;28;20199;-76
2023/12/07 05:29:30;;;;;;;8.80;7.27;;;;;;;0.48;100.00;98521.13;5115904;28;20612;-76
2023/12/07 05:31:57;;;;;;;8.30;6.87;;;;;;;0.47;100.00;98518.63;5116220;28;20286;-76
2023/12/07 05:34:23;;;;;;;9.13;7.00;;;;;;;0.44;100.00;98522.38;5116015;28;20227;-76
2023/12/07 05:36:49;;;;;;;9.70;7.07;;;;;;;0.41;100.00;98516.59;5116042;28;20206;-76
2023/12/07 05:39:17;;;;;;;11.90;7.23;;;;;;;0.39;100.00;98519.38;5115862;28;20219;-76
2023/12/07 05:41:43;;;;;;;8.70;7.60;;;;;;;0.47;100.00;98516.84;5115923;28;20610;-76
2023/12/07 05:44:10;;;;;;;9.97;7.10;;;;;;;0.47;100.00;98517.66;5115495;28;20562;-76
2023/12/07 05:46:37;;;;;;;9.93;6.83;;;;;;;0.44;100.00;98524.19;5115602;28;20206;-76
2023/12/07 05:49:04;;;;;;;9.80;7.40;;;;;;;0.45;100.00;98516.16;5115398;28;20775;-76
2023/12/07 05:51:30;;;;;;;9.67;7.43;;;;;;;0.42;100.00;98513.03;5115583;28;20248;-76
2023/12/07 05:53:57;;;;;;;9.47;7.27;;;;;;;0.42;100.00;98515.63;5115377;28;20225;-76
2023/12/07 05:56:24;;;;;;;9.73;7.70;;;;;;;0.40;100.00;98505.31;5115538;28;20439;-76
2023/12/07 05:58:50;;;;;;;9.07;6.97;;;;;;;0.41;100.00;98511.38;5115280;28;20199;-76
2023/12/07 06:01:19;;;;;;;11.70;8.10;;;;;;;0.46;100.00;98510.00;5115159;28;20199;-76
2023/12/07 06:03:46;;;;;;;9.70;7.37;;;;;;;0.44;100.00;98511.91;5115044;28;20207;-76
2023/12/07 06:06:12;;;;;;;9.10;7.30;;;;;;;0.46;100.00;98504.75;5115003;28;20618;-76
2023/12/07 06:08:39;;;;;;;10.07;7.47;;;;;;;0.48;100.00;98510.66;5114696;28;20213;-75
2023/12/07 06:11:06;;;;;;;10.43;7.53;;;;;;;0.44;100.00;98514.53;5115523;28;20200;-75
2023/12/07 06:13:33;;;;;;;8.87;7.30;;;;;;;0.40;100.00;98518.38;5114528;28;20214;-75
2023/12/07 06:16:01;;;;;;;8.47;7.03;;;;;;;0.45;100.00;98515.34;5115137;28;20210;-76
2023/12/07 06:18:27;;;;;;;11.03;8.00;;;;;;;0.46;100.00;98519.59;5115112;28;20221;-76
2023/12/07 06:20:53;;;;;;;10.10;7.47;;;;;;;0.44;100.00;98516.34;5114762;28;20237;-76
2023/12/07 06:23:20;;;;;;;8.33;7.27;;;;;;;0.48;100.00;98513.25;5114540;28;20210;-76
2023/12/07 06:25:46;;;;;;;10.13;7.17;;;;;;;0.47;100.00;98505.56;5114574;28;20203;-76
2023/12/07 06:28:12;;;;;;;8.33;6.63;;;;;;;0.43;100.00;98507.66;5115088;28;20211;-75
2023/12/07 06:30:39;;;;;;;9.87;7.90;;;;;;;0.46;100.00;98514.38;5114585;28;20230;-76
2023/12/07 06:33:06;;;;;;;9.00;7.10;;;;;;;0.40;100.00;98510.53;5114410;28;20205;-76
2023/12/07 06:35:32;;;;;;;8.43;6.63;;;;;;;0.32;100.00;98514.84;5114625;28;20222;-76
2023/12/07 06:37:59;;;;;;;8.83;7.70;;;;;;;0.31;100.00;98524.47;5114395;28;20203;-75
2023/12/07 06:40:25;;;;;;;8.80;7.40;;;;;;;0.30;100.00;98509.75;5114115;28;20250;-75
2023/12/07 06:42:51;;;;;;;8.50;7.27;;;;;;;0.26;100.00;98513.63;5114272;28;20203;-75
2023/12/07 06:45:18;;;;;;;8.63;7.70;;;;;;;0.23;100.00;98514.75;5114128;28;20203;-75
2023/12/07 06:47:44;;;;;;;11.70;7.60;;;;;;;0.21;100.00;98515.06;5113592;28;20203;-76
2023/12/07 06:50:11;;;;;;;8.47;7.47;;;;;;;0.10;100.00;98519.47;5114047;28;20231;-76
2023/12/07 06:52:38;;;;;;;9.53;7.67;;;;;;;0.21;100.00;98525.50;5114369;28;20207;-75
2023/12/07 06:55:05;;;;;;;9.60;7.60;;;;;;;0.13;100.00;98520.16;5114055;28;20359;-75
2023/12/07 06:57:31;;;;;;;8.37;7.47;;;;;;;0.12;100.00;98518.53;5114229;28;20210;-75
2023/12/07 06:59:57;;;;;;;10.33;7.97;;;;;;;0.08;100.00;98516.19;5114173;28;20235;-76
2023/12/07 07:02:25;;;;;;;9.53;8.27;;;;;;;0.14;100.00;98520.84;5113387;28;20207;-76
2023/12/07 07:04:52;;;;;;;10.27;8.60;;;;;;;0.21;100.00;98515.84;5114216;28;20199;-76
2023/12/07 07:07:18;;;;;;;12.23;8.37;;;;;;;0.19;100.00;98523.84;5113995;28;20226;-76
2023/12/07 07:09:45;;;;;;;11.53;8.57;;;;;;;0.21;100.00;98522.91;5113922;28;20223;-76
2023/12/07 07:12:11;;;;;;;10.77;8.60;;;;;;;0.12;100.00;98521.13;5113471;28;20723;-76
2023/12/07 07:14:38;;;;;;;11.43;8.40;;;;;;;0.15;100.00;98519.06;5112976;28;20219;-76
2023/12/07 07:17:05;;;;;;;10.67;7.87;;;;;;;0.22;100.00;98521.91;5113181;28;20217;-76
2023/12/07 07:19:31;;;;;;;12.77;8.97;;;;;;;0.30;100.00;98529.88;5112548;28;20233;-76
2023/12/07 07:21:58;;;;;;;11.77;8.87;;;;;;;0.27;100.00;98512.66;5113274;28;20207;-76
2023/12/07 07:24:24;;;;;;;11.80;9.33;;;;;;;0.32;100.00;98519.13;5112460;28;20198;-75
2023/12/07 07:26:50;;;;;;;11.17;8.63;;;;;;;0.42;100.00;98515.63;5113342;28;20209;-75
2023/12/07 07:29:16;;;;;;;12.53;9.13;;;;;;;0.44;100.00;98517.13;5113352;28;20219;-76
2023/12/07 07:31:43;;;;;;;14.50;9.47;;;;;;;0.47;100.00;98521.25;5113335;28;20207;-75
2023/12/07 07:34:09;;;;;;;11.83;9.67;;;;;;;0.54;100.00;98522.34;5113332;28;20223;-75
2023/12/07 07:36:35;;;;;;;12.47;9.20;;;;;;;0.56;100.00;98523.00;5113409;28;20209;-75
2023/12/07 07:39:02;;;;;;;13.87;10.10;;;;;;;0.52;100.00;98526.88;5112877;28;20246;-75
2023/12/07 07:41:28;;;;;;;10.60;9.50;;;;;;;0.60;100.00;98521.75;5113365;28;20203;-75
2023/12/07 07:43:55;;;;;;;13.17;10.10;;;;;;;0.62;100.00;98517.22;5113209;28;20209;-75
2023/12/07 07:46:22;;;;;;;10.37;9.27;;;;;;;0.63;100.00;98521.47;5112954;28;20247;-75
2023/12/07 07:48:48;;;;;;;13.27;9.43;;;;;;;0.60;100.00;98530.44;5113472;28;20343;-75
2023/12/07 07:51:14;;;;;;;11.70;9.40;;;;;;;0.64;100.00;98531.78;5112484;28;20656;-75
2023/12/07 07:53:41;;;;;;;11.70;10.10;;;;;;;0.67;100.00;98533.28;5112582;28;20666;-75
2023/12/07 07:56:08;;;;;;;12.43;9.83;;;;;;;0.71;100.00;98529.41;5112650;28;20750;-75
2023/12/07 07:58:35;;;;;;;11.47;9.07;;;;;;;0.83;100.00;98531.69;5112948;28;20203;-75
2023/12/07 08:01:01;;;;;;;11.10;9.40;;;;;;;0.76;100.00;98527.97;5112809;28;20211;-75
2023/12/07 08:03:27;;;;;;;13.00;9.87;;;;;;;0.74;100.00;98534.34;5112898;28;20210;-75
2023/12/07 08:05:54;;;;;;;11.27;10.03;;;;;;;0.79;100.00;98530.31;5112785;28;20203;-75
2023/12/07 08:08:20;;;;;;;14.57;10.07;;;;;;;0.81;100.00;98532.78;5113275;28;20207;-75
2023/12/07 08:10:46;;;;;;;11.50;9.87;;;;;;;0.85;100.00;98529.72;5112575;28;20223;-75
2023/12/07 08:13:13;;;;;;;13.97;10.27;;;;;;;0.88;100.00;98526.00;5113037;28;20207;-75
2023/12/07 08:15:39;;;;;;;11.50;9.50;;;;;;;0.93;100.00;98528.97;5112748;28;20219;-75
2023/12/07 08:18:06;;;;;;;13.43;10.27;;;;;;;0.93;100.00;98534.22;5112891;28;20219;-75
2023/12/07 08:20:32;;;;;;;13.80;10.40;;;;;;;0.94;100.00;98533.28;5112543;28;20284;-75
2023/12/07 08:22:59;;;;;;;12.70;9.63;;;;;;;0.96;100.00;98529.53;5113142;28;20203;-75
2023/12/07 08:25:25;;;;;;;14.03;10.40;;;;;;;0.99;100.00;98526.59;5113060;28;20199;-75
2023/12/07 08:27:52;;;;;;;14.57;11.10;;;;;;;0.97;100.00;98532.97;5112925;28;20294;-75
2023/12/07 08:30:19;;;;;;;13.53;10.57;;;;;;;1.08;100.00;98546.66;5112759;28;20219;-76
2023/12/07 08:32:46;;;;;;;14.40;11.17;;;;;;;1.19;100.00;98546.47;5113079;28;20213;-76
2023/12/07 08:35:12;;;;;;;16.53;11.17;;;;;;;1.31;100.00;98539.22;5113873;28;20222;-75
2023/12/07 08:37:39;;;;;;;14.10;11.17;;;;;;;1.32;100.00;98538.22;5116925;28;20206;-75
2023/12/07 08:40:07;;;;;;;13.90;10.87;;;;;;;1.30;100.00;98538.38;5116753;28;20284;-76
2023/12/07 08:42:33;;;;;;;12.20;10.10;;;;;;;1.26;100.00;98537.03;5116342;28;20678;-75
2023/12/07 08:44:59;;;;;;;15.23;11.67;;;;;;;1.38;100.00;98540.25;5116351;28;20215;-75
2023/12/07 08:47:30;;;;;;;12.20;10.17;;;;;;;1.39;100.00;98540.09;5178622;22;20232;-77
2023/12/07 08:49:56;;;;;;;13.30;10.97;;;;;;;1.39;100.00;98534.06;5088135;28;20646;-75
2023/12/07 08:52:22;;;;;;;18.30;11.70;;;;;;;1.40;100.00;98538.31;5096231;28;20203;-75
2023/12/07 08:54:49;;;;;;;11.43;9.67;;;;;;;1.41;100.00;98534.72;5095889;28;20587;-75
2023/12/07 08:57:15;;;;;;;12.53;10.17;;;;;;;1.48;100.00;98523.47;5095930;28;20696;-75
2023/12/07 08:59:41;;;;;;;12.63;10.83;;;;;;;1.58;100.00;98523.41;5096088;28;20723;-75
2023/12/07 09:02:08;;;;;;;12.37;10.27;;;;;;;1.64;100.00;98520.19;5095974;28;20682;-75
2023/12/07 09:04:34;;;;;;;15.70;10.67;;;;;;;1.69;100.00;98520.53;5095979;28;20200;-75
2023/12/07 09:07:00;;;;;;;14.73;10.83;;;;;;;1.89;100.00;98517.56;5096153;28;20211;-75
2023/12/07 09:09:27;;;;;;;13.77;10.50;;;;;;;1.92;100.00;98514.66;5095844;28;20230;-75
2023/12/07 09:11:53;;;;;;;12.77;10.63;;;;;;;2.06;100.00;98515.88;5096313;28;20208;-75
2023/12/07 09:14:19;;;;;;;13.93;10.33;;;;;;;2.24;100.00;98516.66;5095585;28;20208;-75
2023/12/07 09:16:47;;;;;;;15.23;10.87;;;;;;;2.18;100.00;98512.88;5095865;28;20238;-75
2023/12/07 09:19:14;;;;;;;12.50;9.97;;;;;;;2.24;100.00;98508.78;5095888;28;20230;-75
2023/12/07 09:21:41;;;;;;;14.33;10.83;;;;;;;2.23;100.00;98507.97;5095820;28;20226;-75
2023/12/07 09:24:07;;;;;;;15.07;10.70;;;;;;;2.21;100.00;98503.84;5095912;28;20210;-75
2023/12/07 09:26:34;;;;;;;14.17;10.53;;;;;;;2.27;100.00;98505.84;5096216;28;20195;-76
2023/12/07 09:29:00;;;;;;;14.33;11.43;;;;;;;2.36;100.00;98502.28;5095740;28;20276;-75
2023/12/07 09:31:27;;;;;;;16.43;11.33;;;;;;;2.33;100.00;98510.47;5095522;28;20208;-75
2023/12/07 09:33:54;;;;;;;16.83;10.70;;;;;;;2.44;100.00;98521.50;5095371;28;20210;-75
2023/12/07 09:36:21;;;;;;;16.63;11.30;;;;;;;2.36;100.00;98513.63;5095291;28;20569;-75
2023/12/07 09:38:48;;;;;;;17.70;11.43;;;;;;;2.56;100.00;98511.56;5095307;28;20246;-75
2023/12/07 09:41:14;;;;;;;16.03;11.60;;;;;;;2.55;100.00;98508.13;5095412;28;20304;-75
2023/12/07 09:43:41;;;;;;;18.33;11.53;;;;;;;2.52;100.00;98513.69;5095214;28;20573;-75
2023/12/07 09:46:07;;;;;;;15.00;11.17;;;;;;;2.68;100.00;98500.63;5094794;28;20688;-75
2023/12/07 09:48:34;;;;;;;13.80;10.73;;;;;;;2.55;100.00;98502.03;5094527;28;20219;-75
2023/12/07 09:51:01;;;;;;;14.60;10.43;;;;;;;2.62;100.00;98503.06;5095218;28;20208;-75
2023/12/07 09:53:30;;;;;;;13.27;9.67;;;;;;;2.77;100.00;98494.44;5096073;28;20203;-75
2023/12/07 09:55:57;;;;;;;17.83;10.70;;;;;;;2.83;100.00;98490.31;5095052;28;20712;-75
2023/12/07 09:58:24;;;;;;;11.83;10.07;;;;;;;2.93;100.00;98494.47;5094927;28;20204;-75
2023/12/07 10:00:50;;;;;;;11.50;9.37;;;;;;;2.94;100.00;98495.28;5095289;28;20258;-75
2023/12/07 10:03:24;;;;;;;12.63;9.77;;;;;;;3.01;100.00;98491.03;5094831;28;20215;-75
2023/12/07 10:06:01;;;;;;;13.37;9.23;;;;;;;2.97;100.00;98481.81;5095138;28;20603;-75
2023/12/07 10:08:31;;;;;;;14.57;9.43;;;;;;;3.01;100.00;98489.22;5094774;28;20298;-75
2023/12/07 10:11:12;;;;;;;16.50;9.13;;;;;;;3.08;100.00;98478.91;5094775;28;20188;-75
2023/12/07 10:13:40;;;;;;;15.90;9.20;;;;;;;3.26;100.00;98471.69;5094460;28;20226;-75
2023/12/07 10:16:17;;;;;;;11.60;8.57;;;;;;;3.19;100.00;98468.91;5094292;28;20281;-75
2023/12/07 10:18:44;;;;;;;11.67;8.93;;;;;;;3.18;100.00;98461.19;5094548;28;20643;-75
2023/12/07 10:21:10;;;;;;;12.33;9.00;;;;;;;3.15;100.00;98470.22;5094998;28;20218;-75
2023/12/07 10:23:38;;;;;;;10.30;7.87;;;;;;;3.40;100.00;98463.16;5094323;28;20208;-75
2023/12/07 10:26:07;;;;;;;13.83;7.97;;;;;;;3.21;100.00;98458.25;5094531;28;20242;-75
2023/12/07 10:28:36;;;;;;;9.77;7.73;;;;;;;3.30;100.00;98455.44;5094656;28;20208;-75
2023/12/07 10:31:03;;;;;;;10.93;8.23;;;;;;;3.20;100.00;98444.28;5094512;28;20204;-75
2023/12/07 10:33:29;;;;;;;12.73;8.33;;;;;;;3.28;100.00;98444.28;5094175;28;20218;-75
2023/12/07 10:35:56;;;;;;;8.90;7.37;;;;;;;3.28;100.00;98446.06;5093943;28;20231;-75
2023/12/07 10:38:22;;;;;;;9.87;7.47;;;;;;;3.37;100.00;98443.28;5094318;28;20206;-75
2023/12/07 10:40:59;;;;;;;9.43;8.13;;;;;;;3.36;100.00;98443.47;5094024;28;20235;-75
2023/12/07 10:43:26;;;;;;;10.43;7.27;;;;;;;3.44;100.00;98438.22;5076204;28;20211;-75
2023/12/07 10:45:53;;;;;;;8.17;7.37;;;;;;;3.48;100.00;98442.94;5093827;28;20199;-76
2023/12/07 10:48:21;;;;;;;11.17;7.17;;;;;;;3.41;100.00;98439.34;5094067;28;20218;-75
2023/12/07 10:50:54;;;;;;;10.50;6.97;;;;;;;3.61;100.00;98435.38;5094116;28;20220;-75
2023/12/07 10:53:28;;;;;;;9.67;6.93;;;;;;;3.61;100.00;98430.13;5094222;28;20275;-75
2023/12/07 10:55:57;;;;;;;8.07;6.93;;;;;;;3.55;100.00;98430.81;5075993;28;20212;-75
2023/12/07 10:58:26;;;;;;;10.33;7.20;;;;;;;3.55;100.00;98437.84;5093595;28;20204;-75
2023/12/07 11:00:56;;;;;;;8.23;6.57;;;;;;;3.64;100.00;98431.59;5093260;28;20266;-75
2023/12/07 11:03:22;;;;;;;8.77;6.33;;;;;;;3.78;100.00;98428.28;5093754;28;20566;-75
2023/12/07 11:05:49;;;;;;;7.20;6.20;;;;;;;3.81;100.00;98430.59;5093856;28;20203;-75
2023/12/07 11:08:28;;;;;;;9.33;5.73;;;;;;;3.78;100.00;98418.59;5093914;28;20295;-75
2023/12/07 11:11:20;;;;;;;10.07;6.13;;;;;;;3.78;100.00;98420.41;5093884;28;20227;-75
2023/12/07 11:13:53;;;;;;;11.90;6.70;;;;;;;3.79;100.00;98411.56;5093472;28;20284;-75
2023/12/07 11:16:30;;;;;;;9.60;6.33;;;;;;;3.90;100.00;98398.03;5093433;28;20614;-75
2023/12/07 11:18:56;;;;;;;8.10;5.90;;;;;;;3.83;100.00;98389.16;5093685;28;20223;-75
2023/12/07 11:21:22;;;;;;;7.10;5.27;;;;;;;3.91;100.00;98389.97;5094343;28;20210;-75
2023/12/07 11:23:49;;;;;;;7.67;5.90;;;;;;;4.00;100.00;98388.97;5093635;28;20210;-75
2023/12/07 11:26:15;;;;;;;9.13;6.07;;;;;;;4.02;100.00;98381.72;5093378;28;20202;-75
2023/12/07 11:28:42;;;;;;;6.73;4.97;;;;;;;3.94;100.00;98384.34;5092947;28;20207;-75